Time;durP1;ratioP1;P1;durP2;ratioP2;P2;SDS_P1;SDS_P2;PMS_P1;PMS_P2;Temp;Humidity;BMP_temperature;BMP_pressure;BME280_temperature;BME280_humidity;BME280_pressure;Samples;Min_cycle;Max_cycle;Signal;HPM_P1;HPM_P2
2023/12/06 05:47:35;;;;;;;;;;;;;;;2.07;78.05;99211.75;5028473;28;20049;-96
2023/12/06 05:50:12;;;;;;;24.20;11.18;;;;;;;1.80;77.93;99173.97;5030636;28;20017;-95
2023/12/06 05:52:39;;;;;;;29.35;12.48;;;;;;;2.00;77.41;99184.44;5013210;28;20026;-96
2023/12/06 05:55:13;;;;;;;45.83;19.67;;;;;;;1.72;77.61;99176.88;4996913;28;20034;-95
2023/12/06 05:57:58;;;;;;;38.75;14.85;;;;;;;1.90;77.81;99187.56;4998066;28;20022;-96
2023/12/06 06:00:37;;;;;;;30.95;14.20;;;;;;;2.01;77.33;99188.72;5037311;28;20064;-95
2023/12/06 06:03:44;;;;;;;33.88;13.18;;;;;;;2.05;77.68;99213.81;4989405;28;20030;-96
2023/12/06 06:06:41;;;;;;;33.75;13.30;;;;;;;2.13;77.14;99215.38;4966431;28;20035;-96
2023/12/06 06:09:40;;;;;;;128.52;59.03;;;;;;;1.94;77.19;99202.03;5045308;23;20119;-95
2023/12/06 06:23:29;;;;;;;35.10;15.70;;;;;;;2.36;76.75;99193.50;6017182;22;20020;-95
2023/12/06 06:27:03;;;;;;;;;;;;;;;;;;;;;
2023/12/06 07:42:32;;;;;;;34.85;16.85;;;;;;;3.37;74.38;99244.56;1605830;22;20321;-91
2023/12/06 07:46:07;;;;;;;35.38;15.43;;;;;;;3.31;73.29;99216.19;4984278;28;20030;-96
2023/12/06 07:49:06;;;;;;;36.08;14.75;;;;;;;3.29;73.80;99213.75;4936779;29;20059;-96
2023/12/06 07:52:33;;;;;;;;;;;;;;;;;;;;;
2023/12/06 08:15:33;;;;;;;37.65;14.10;;;;;;;3.47;73.58;99234.19;5393504;23;20274;-95
2023/12/06 08:18:03;;;;;;;31.23;14.23;;;;;;;3.56;73.63;99235.47;4950661;28;20038;-96
2023/12/06 08:20:31;;;;;;;27.60;12.40;;;;;;;3.43;73.20;99239.13;4973201;28;20022;-93
2023/12/06 08:31:40;;;;;;;24.38;11.32;;;;;;;3.49;72.58;99216.16;5021159;28;20050;-96
2023/12/06 08:34:09;;;;;;;;;;;;;;;3.78;72.70;99243.78;4996735;23;20062;-95
2023/12/06 08:36:37;;;;;;;25.38;11.23;;;;;;;3.51;72.01;99215.91;4956076;28;19902;-95
2023/12/06 08:39:06;;;;;;;26.02;11.57;;;;;;;3.56;72.22;99216.03;4940050;28;20030;-96
2023/12/06 08:44:11;;;;;;;27.85;12.43;;;;;;;3.76;70.76;99205.91;5209673;22;20085;-94
2023/12/06 08:46:38;;;;;;;24.48;11.35;;;;;;;3.80;71.25;99219.59;4983657;28;20052;-94
2023/12/06 08:49:03;;;;;;;22.02;10.50;;;;;;;3.93;70.90;99222.06;4984282;28;20026;-93
2023/12/06 08:51:39;;;;;;;25.38;11.52;;;;;;;3.94;71.08;99223.66;4985908;28;20029;-93
2023/12/06 08:54:05;;;;;;;25.33;11.02;;;;;;;3.75;71.94;99219.47;4989767;28;20041;-94
2023/12/06 08:56:33;;;;;;;20.52;10.77;;;;;;;3.80;71.86;99230.25;4974135;28;20026;-92
2023/12/06 08:59:02;;;;;;;22.02;11.30;;;;;;;3.83;71.12;99211.16;4972293;28;20058;-94
2023/12/06 09:01:38;;;;;;;20.50;10.00;;;;;;;3.81;71.16;99200.72;4972718;28;20144;-93
2023/12/06 09:04:03;;;;;;;22.92;11.55;;;;;;;3.85;71.48;99209.88;4977931;28;20032;-93
2023/12/06 09:06:29;;;;;;;22.10;11.18;;;;;;;3.89;70.99;99204.09;4970362;28;20019;-96
2023/12/06 09:08:55;;;;;;;21.60;10.50;;;;;;;4.07;70.93;99185.38;4954289;28;20117;-92
2023/12/06 09:11:27;;;;;;;19.45;10.60;;;;;;;4.37;69.17;99203.91;4954096;28;20018;-94
2023/12/06 09:13:55;;;;;;;28.75;11.13;;;;;;;4.42;68.40;99187.19;4972784;28;20034;-95
2023/12/06 09:16:27;;;;;;;31.13;11.82;;;;;;;4.45;69.62;99194.75;4990414;28;20037;-96
2023/12/06 09:19:13;;;;;;;23.02;11.27;;;;;;;4.40;69.21;99194.63;4950570;28;20105;-95
2023/12/06 09:21:46;;;;;;;32.13;13.82;;;;;;;4.09;70.10;99177.97;4949616;28;20121;-94
2023/12/06 09:24:15;;;;;;;28.65;13.73;;;;;;;4.36;69.45;99186.31;4949924;28;20432;-95
2023/12/06 09:26:41;;;;;;;23.77;11.93;;;;;;;4.53;70.01;99183.75;4949375;28;20030;-94
2023/12/06 09:29:08;;;;;;;24.40;12.27;;;;;;;4.17;69.49;99177.63;4948965;28;20552;-96
2023/12/06 09:32:16;;;;;;;25.30;11.90;;;;;;;4.46;70.04;99188.34;4952691;28;20054;-96
2023/12/06 09:34:25;;;;;;;23.48;12.98;;;;;;;4.35;69.86;99166.00;4964777;28;20045;-95
2023/12/06 09:36:51;;;;;;;21.92;11.65;;;;;;;4.40;70.04;99171.47;4965243;28;20031;-92
2023/12/06 09:39:20;;;;;;;28.35;13.05;;;;;;;4.33;70.44;99167.28;4953395;28;20117;-94
2023/12/06 09:41:46;;;;;;;27.23;12.70;;;;;;;4.34;69.77;99150.28;4965608;28;20055;-92
2023/12/06 09:44:14;;;;;;;25.77;12.25;;;;;;;4.09;70.68;99150.47;4965474;28;20078;-93
2023/12/06 09:46:43;;;;;;;27.33;12.13;;;;;;;4.19;70.52;99150.72;4953240;28;20034;-92
2023/12/06 09:49:09;;;;;;;24.73;11.93;;;;;;;4.21;70.71;99148.63;4950002;28;20055;-94
2023/12/06 09:51:34;;;;;;;28.42;13.25;;;;;;;4.29;70.09;99142.94;4963925;28;20028;-94
2023/12/06 09:54:00;;;;;;;34.38;15.20;;;;;;;4.50;69.75;99168.19;4968505;28;20031;-94
2023/12/06 09:56:29;;;;;;;27.58;13.40;;;;;;;4.53;69.34;99134.94;4973221;28;20045;-94
2023/12/06 09:58:55;;;;;;;33.25;13.57;;;;;;;4.67;69.36;99141.63;5004412;28;20026;-93
2023/12/06 10:01:30;;;;;;;29.95;13.65;;;;;;;4.77;69.11;99138.34;4993968;28;20416;-96
2023/12/06 10:04:03;;;;;;;32.97;15.63;;;;;;;4.88;69.28;99150.84;5014971;28;20026;-95
2023/12/06 10:06:29;;;;;;;26.52;15.13;;;;;;;4.85;69.24;99143.31;4992658;28;20021;-96
2023/12/06 10:09:07;;;;;;;40.53;19.75;;;;;;;4.90;68.67;99139.94;4994381;28;20124;-96
2023/12/06 10:11:35;;;;;;;30.02;13.02;;;;;;;4.98;68.34;99152.91;5023682;28;20041;-94
2023/12/06 10:14:04;;;;;;;29.40;13.23;;;;;;;4.72;68.37;99143.59;5003783;28;20033;-95
2023/12/06 10:16:32;;;;;;;27.48;13.48;;;;;;;4.68;69.04;99142.44;4975401;28;20018;-96
2023/12/06 10:19:04;;;;;;;31.27;14.25;;;;;;;4.25;70.42;99131.97;4974006;28;20117;-93
2023/12/06 10:21:56;;;;;;;32.95;13.45;;;;;;;4.30;70.71;99139.25;4991277;28;20026;-95
2023/12/06 10:24:21;;;;;;;29.65;13.73;;;;;;;4.20;70.53;99115.03;4983711;28;20048;-96
2023/12/06 10:27:27;;;;;;;26.83;12.93;;;;;;;4.42;70.74;99139.22;4980828;28;20443;-96
2023/12/06 10:30:13;;;;;;;27.00;12.77;;;;;;;4.03;71.25;99105.09;4945553;29;20039;-96
2023/12/06 10:36:50;;;;;;;25.85;12.75;;;;;;;4.19;71.06;99122.22;5136090;22;20049;-96
2023/12/06 10:44:23;;;;;;;32.00;13.52;;;;;;;4.22;70.73;99105.75;5019423;28;20065;-93
2023/12/06 10:46:52;;;;;;;43.10;22.10;;;;;;;4.13;70.70;99104.50;4989507;28;20456;-96
2023/12/06 10:49:37;;;;;;;;;;;;;;;;;;;;;
2023/12/06 10:52:04;;;;;;;70.88;36.95;;;;;;;4.06;72.75;99114.47;4989734;28;20121;-93
2023/12/06 10:54:30;;;;;;;85.95;46.15;;;;;;;4.27;72.51;99129.03;4988096;28;20033;-92
2023/12/06 10:56:56;;;;;;;59.90;31.00;;;;;;;4.48;71.23;99137.47;4989159;28;20526;-95
2023/12/06 10:59:31;;;;;;;53.10;25.85;;;;;;;4.44;70.32;99108.66;4977980;28;20110;-95
2023/12/06 11:02:39;;;;;;;38.35;18.95;;;;;;;4.36;71.29;99098.34;4981443;28;20034;-95
2023/12/06 11:05:05;;;;;;;32.50;14.38;;;;;;;4.52;70.94;99119.97;4983764;28;20038;-93
2023/12/06 11:10:59;;;;;;;34.42;15.98;;;;;;;4.57;70.68;99107.56;5036052;28;20419;-94
2023/12/06 11:13:42;;;;;;;33.80;14.77;;;;;;;4.78;69.59;99142.66;4980797;28;20045;-96
2023/12/06 11:16:52;;;;;;;36.85;15.23;;;;;;;4.73;69.62;99135.38;4993644;28;20086;-96
2023/12/06 11:19:18;;;;;;;32.08;13.85;;;;;;;4.84;69.35;99133.72;4993464;28;20041;-94
2023/12/06 11:21:45;;;;;;;46.05;19.42;;;;;;;4.89;69.78;99133.78;4975201;28;20102;-93
2023/12/06 11:24:14;;;;;;;39.90;19.52;;;;;;;4.85;69.01;99103.31;4975679;28;20033;-93
2023/12/06 11:26:40;;;;;;;37.88;16.63;;;;;;;4.54;70.46;99105.34;4993134;28;20033;-95
2023/12/06 11:29:54;;;;;;;32.83;14.55;;;;;;;4.44;71.07;99094.47;4977945;28;20044;-94
2023/12/06 11:32:23;;;;;;;37.10;15.55;;;;;;;4.61;71.67;99106.06;4973280;28;20042;-96
2023/12/06 11:34:55;;;;;;;45.88;23.08;;;;;;;4.60;70.96;99095.63;4977280;28;20029;-95
2023/12/06 11:37:22;;;;;;;29.27;13.77;;;;;;;4.62;71.31;99088.19;4993753;28;20032;-95
2023/12/06 11:39:48;;;;;;;29.67;13.48;;;;;;;4.27;71.89;99062.41;4966810;28;20041;-93
2023/12/06 11:42:18;;;;;;;60.67;26.63;;;;;;;4.52;71.48;99099.44;4979010;28;20038;-94
2023/12/06 11:44:54;;;;;;;34.55;14.07;;;;;;;4.55;71.03;99072.34;4965924;28;20042;-94
2023/12/06 11:47:27;;;;;;;37.35;14.68;;;;;;;4.76;71.48;99089.53;4981542;28;20026;-94
2023/12/06 11:49:53;;;;;;;38.45;17.10;;;;;;;4.78;70.89;99068.78;4983916;28;20456;-94
2023/12/06 11:52:20;;;;;;;46.95;18.02;;;;;;;4.81;70.57;99064.81;4966629;28;20023;-95
2023/12/06 11:54:46;;;;;;;38.40;17.23;;;;;;;4.94;70.10;99072.53;4968757;28;20022;-95
2023/12/06 11:57:14;;;;;;;38.25;16.17;;;;;;;5.01;69.97;99077.72;4973072;28;20044;-96
2023/12/06 11:59:44;;;;;;;28.70;13.90;;;;;;;4.96;70.00;99081.13;4973921;28;20033;-94
2023/12/06 12:02:10;;;;;;;31.33;13.63;;;;;;;4.84;69.81;99067.03;4968300;28;20092;-93
2023/12/06 12:04:36;;;;;;;34.88;14.93;;;;;;;4.77;69.71;99085.84;4986281;28;20030;-94
2023/12/06 12:07:14;;;;;;;29.60;14.82;;;;;;;4.75;70.71;99079.09;4968229;28;20037;-92
2023/12/06 12:09:40;;;;;;;32.80;15.02;;;;;;;4.56;71.37;99071.28;4985771;28;20048;-93
2023/12/06 12:12:06;;;;;;;37.10;13.70;;;;;;;4.57;71.62;99069.44;4967630;28;20097;-93
2023/12/06 12:14:35;;;;;;;28.63;12.52;;;;;;;4.51;71.67;99070.38;4965039;28;20089;-93
2023/12/06 12:17:02;;;;;;;40.63;16.80;;;;;;;4.65;71.87;99093.88;4970375;28;20033;-95
2023/12/06 12:19:29;;;;;;;48.65;19.13;;;;;;;4.67;71.94;99085.63;4966530;28;20061;-93
2023/12/06 12:22:07;;;;;;;47.20;20.52;;;;;;;4.45;72.40;99080.13;5007609;28;20103;-95
2023/12/06 12:24:46;;;;;;;37.17;16.73;;;;;;;4.74;72.21;99088.97;4989318;28;20104;-96
2023/12/06 12:27:12;;;;;;;37.35;16.20;;;;;;;4.62;71.19;99062.31;4971658;28;20096;-96
2023/12/06 12:29:56;;;;;;;33.78;14.15;;;;;;;4.58;71.58;99055.03;4953652;28;20037;-96
2023/12/06 12:32:28;;;;;;;36.38;14.38;;;;;;;4.70;72.24;99085.16;4976304;28;20089;-96
2023/12/06 12:34:56;;;;;;;;;;;;;;;4.65;71.32;99088.53;4966644;28;20148;-95
2023/12/06 12:37:21;;;;;;;38.30;17.17;;;;;;;4.42;71.63;99054.75;5007104;28;19909;-95
2023/12/06 12:39:49;;;;;;;37.40;16.15;;;;;;;4.51;72.12;99073.84;5026179;28;20021;-95
2023/12/06 12:42:15;;;;;;;38.63;16.17;;;;;;;4.27;72.48;99067.75;4993861;28;20034;-96
2023/12/06 12:44:52;;;;;;;39.28;17.80;;;;;;;4.22;72.87;99054.34;5010515;28;20021;-96
2023/12/06 12:47:18;;;;;;;36.80;15.98;;;;;;;4.42;72.10;99081.41;5008373;28;20034;-94
2023/12/06 12:49:48;;;;;;;39.97;18.30;;;;;;;4.47;72.32;99085.22;4984705;28;20053;-95
2023/12/06 12:52:15;;;;;;;35.72;16.48;;;;;;;4.66;72.34;99103.47;5002119;28;20176;-94
2023/12/06 12:54:41;;;;;;;34.90;15.75;;;;;;;4.62;71.94;99091.66;4964812;28;20033;-95
2023/12/06 13:00:35;;;;;;;;;;;;;;;;;;;;;
2023/12/06 13:10:58;;;;;;;31.83;14.88;;;;;;;4.60;71.42;99076.94;5345251;23;20058;-93
2023/12/06 13:13:25;;;;;;;34.13;14.70;;;;;;;4.58;72.16;99092.38;4989340;28;20025;-95
2023/12/06 13:15:51;;;;;;;35.25;16.98;;;;;;;4.42;72.88;99093.91;4969302;28;20498;-93
2023/12/06 13:18:18;;;;;;;42.75;18.27;;;;;;;4.25;73.66;99097.31;4985015;28;20037;-95
2023/12/06 13:20:59;;;;;;;38.70;18.27;;;;;;;4.51;73.09;99091.72;4971934;28;20030;-96
2023/12/06 13:23:32;;;;;;;39.78;16.33;;;;;;;4.67;71.83;99093.63;4989756;28;20049;-94
2023/12/06 13:25:58;;;;;;;36.80;15.60;;;;;;;4.66;71.34;99087.47;4987369;28;20060;-94
2023/12/06 13:28:27;;;;;;;37.20;15.45;;;;;;;4.86;71.63;99107.59;4970346;28;20025;-95
2023/12/06 13:30:53;;;;;;;44.83;18.08;;;;;;;4.89;71.84;99107.13;4970159;28;20037;-96
2023/12/06 13:33:35;;;;;;;43.60;18.40;;;;;;;4.96;72.02;99109.63;5678263;22;20223;-95
2023/12/06 13:38:53;;;;;;;32.78;15.60;;;;;;;4.94;70.49;99106.41;5164357;22;20134;-96
2023/12/06 13:41:35;;;;;;;45.40;16.45;;;;;;;4.95;71.56;99108.84;4982857;28;20066;-96
2023/12/06 13:44:19;;;;;;;33.85;15.40;;;;;;;4.63;72.22;99100.50;4955082;28;20030;-96
2023/12/06 13:47:24;;;;;;;34.25;16.40;;;;;;;4.82;71.48;99099.25;4943607;28;20055;-96
2023/12/06 13:49:50;;;;;;;34.28;14.05;;;;;;;4.71;72.05;99101.97;4902533;29;20243;-96
2023/12/06 13:52:18;;;;;;;28.80;13.32;;;;;;;4.52;71.84;99098.66;4929814;29;20035;-95
2023/12/06 13:54:44;;;;;;;40.67;18.80;;;;;;;4.85;72.12;99117.44;4947944;29;20035;-95
2023/12/06 13:57:10;;;;;;;33.28;16.00;;;;;;;4.78;71.68;99095.44;4947094;29;20043;-95
2023/12/06 13:59:36;;;;;;;33.85;15.43;;;;;;;4.83;71.51;99114.19;4949759;29;20035;-94
2023/12/06 14:02:05;;;;;;;30.05;13.52;;;;;;;4.69;71.65;99096.03;4931324;29;20074;-95
2023/12/06 14:04:30;;;;;;;29.92;15.30;;;;;;;4.56;71.84;99097.13;4931217;29;20102;-93
2023/12/06 14:07:19;;;;;;;32.70;13.90;;;;;;;4.68;72.50;99113.09;4944407;29;20546;-93
2023/12/06 14:09:45;;;;;;;28.92;14.18;;;;;;;4.79;72.28;99120.25;4941043;29;20162;-94
2023/12/06 14:12:11;;;;;;;40.53;19.77;;;;;;;4.69;71.42;99102.22;4949004;28;20042;-96
2023/12/06 14:14:37;;;;;;;29.67;15.75;;;;;;;4.73;71.69;99102.53;4949871;28;20027;-93
2023/12/06 14:17:03;;;;;;;33.10;15.40;;;;;;;4.73;72.91;99122.03;4960640;28;20038;-96
2023/12/06 14:19:34;;;;;;;28.67;15.15;;;;;;;4.80;72.05;99114.69;4974030;28;20026;-95
2023/12/06 14:22:00;;;;;;;28.63;13.67;;;;;;;4.84;71.56;99113.16;4973017;28;20030;-94
2023/12/06 14:24:41;;;;;;;38.33;18.02;;;;;;;5.09;71.16;99136.06;4971984;28;20026;-94
2023/12/06 14:27:10;;;;;;;32.03;14.65;;;;;;;5.04;70.37;99111.94;5103669;23;20144;-96
2023/12/06 14:47:35;;;;;;;41.78;19.27;;;;;;;4.74;71.51;99126.31;5023105;28;20057;-94
2023/12/06 14:50:09;;;;;;;41.70;17.52;;;;;;;4.74;72.22;99118.31;4976261;28;20034;-96
2023/12/06 14:52:39;;;;;;;37.08;17.00;;;;;;;4.91;71.38;99134.38;4998107;28;20069;-96
2023/12/06 14:55:07;;;;;;;37.58;17.13;;;;;;;4.99;71.81;99143.84;4977486;28;20452;-95
2023/12/06 14:57:35;;;;;;;40.00;16.63;;;;;;;4.91;71.78;99142.38;5009588;28;20026;-95
2023/12/06 15:00:09;;;;;;;42.63;15.13;;;;;;;4.97;71.43;99140.63;4993713;28;20025;-96
2023/12/06 15:02:40;;;;;;;43.45;17.48;;;;;;;4.92;71.62;99149.34;4981209;28;20084;-95
2023/12/06 15:05:19;;;;;;;39.20;16.20;;;;;;;4.81;71.49;99124.28;4983740;28;20018;-96
2023/12/06 15:07:45;;;;;;;32.92;14.30;;;;;;;4.81;71.47;99131.50;4996314;28;20024;-94
2023/12/06 15:11:27;;;;;;;32.53;15.02;;;;;;;4.61;71.49;99108.72;4985408;28;20077;-94
2023/12/06 15:30:11;;;;;;;30.77;14.02;;;;;;;4.75;74.20;99127.09;5718468;22;20035;-95
2023/12/06 15:38:19;;;;;;;34.00;15.63;;;;;;;4.61;74.91;99156.72;5516192;22;20045;-96
2023/12/06 15:40:52;;;;;;;32.38;14.68;;;;;;;4.61;75.20;99146.06;5032589;28;20057;-94
2023/12/06 15:43:19;;;;;;;31.30;15.75;;;;;;;4.47;75.96;99130.53;4979261;28;20030;-96
2023/12/06 15:48:35;;;;;;;32.33;16.00;;;;;;;4.60;75.42;99131.06;4949031;28;20081;-96
2023/12/06 15:51:11;;;;;;;33.88;15.15;;;;;;;4.54;75.87;99124.03;4966917;28;20563;-95
2023/12/06 15:53:37;;;;;;;45.97;22.15;;;;;;;4.74;75.76;99144.16;4942876;28;20043;-95
2023/12/06 15:56:11;;;;;;;55.63;27.00;;;;;;;4.68;75.26;99137.91;4937435;28;20424;-96
2023/12/06 15:58:37;;;;;;;93.13;45.15;;;;;;;4.85;74.94;99146.78;4939063;28;20094;-96
2023/12/06 16:01:07;;;;;;;106.65;57.70;;;;;;;4.90;74.79;99134.59;4951567;28;20031;-95
2023/12/06 16:07:00;;;;;;;25.77;12.65;;;;;;;4.86;73.63;99120.94;4987178;28;20053;-96
2023/12/06 16:09:35;;;;;;;;;;;;;;;;;;;;;
2023/12/06 16:18:33;;;;;;;47.33;26.70;;;;;;;4.25;75.33;99118.63;5030003;28;20101;-95
2023/12/06 16:21:15;;;;;;;41.25;22.13;;;;;;;4.31;76.32;99135.53;5000543;28;20048;-95
2023/12/06 16:24:24;;;;;;;28.38;12.65;;;;;;;4.31;76.93;99127.53;4988260;28;20033;-96
2023/12/06 16:32:01;;;;;;;29.92;14.15;;;;;;;4.17;75.92;99129.66;4991295;28;20046;-96
2023/12/06 16:34:28;;;;;;;40.83;19.70;;;;;;;4.23;76.43;99142.03;4942171;28;20041;-96
2023/12/06 16:36:54;;;;;;;41.17;18.00;;;;;;;4.30;76.45;99162.44;4941322;28;20027;-96
2023/12/06 16:39:32;;;;;;;50.83;19.70;;;;;;;4.15;76.71;99134.41;4942593;28;20027;-96
2023/12/06 16:42:10;;;;;;;28.15;14.60;;;;;;;4.14;77.21;99132.75;4945349;28;20042;-95
2023/12/06 16:44:56;;;;;;;27.88;14.02;;;;;;;4.15;76.76;99131.75;4977378;28;20045;-96
2023/12/06 16:47:25;;;;;;;27.00;14.15;;;;;;;4.23;76.77;99128.72;4958977;28;20047;-96
2023/12/06 16:50:16;;;;;;;;;;;;;;;;;;;;;
2023/12/06 16:53:36;;;;;;;26.10;14.77;;;;;;;4.21;77.37;99122.81;5279849;23;20105;-95
2023/12/06 16:56:35;;;;;;;30.23;13.65;;;;;;;4.49;76.28;99155.13;5034526;28;20042;-96
2023/12/06 16:59:04;;;;;;;23.63;14.75;;;;;;;4.40;76.32;99154.63;4992917;28;20045;-95
2023/12/06 17:01:56;;;;;;;23.02;13.13;;;;;;;4.57;76.11;99158.22;4986523;28;20025;-96
2023/12/06 17:04:37;;;;;;;28.77;14.25;;;;;;;4.44;76.17;99129.13;5062675;23;20102;-95
2023/12/06 17:07:03;;;;;;;30.35;14.93;;;;;;;4.51;76.02;99135.16;4946407;28;20560;-96
2023/12/06 17:17:53;;;;;;;35.05;17.77;;;;;;;4.38;76.37;99156.72;6099932;22;20027;-94
2023/12/06 17:20:27;;;;;;;30.70;15.40;;;;;;;4.23;77.23;99143.88;4923079;29;20047;-94
2023/12/06 17:22:56;;;;;;;24.13;13.75;;;;;;;4.31;77.21;99167.50;4938258;29;20043;-96
2023/12/06 17:25:53;;;;;;;22.35;13.25;;;;;;;4.34;77.17;99158.25;4958027;29;20035;-96
2023/12/06 17:28:48;;;;;;;24.33;13.02;;;;;;;4.29;76.61;99152.81;5194308;23;20053;-95
2023/12/06 17:31:23;;;;;;;21.80;12.40;;;;;;;4.51;75.90;99169.81;4978746;28;20033;-96
2023/12/06 17:33:58;;;;;;;27.92;16.80;;;;;;;4.23;76.28;99142.03;5003996;28;20037;-96
2023/12/06 17:36:55;;;;;;;21.55;12.85;;;;;;;4.25;76.61;99158.63;4965240;29;20128;-95
2023/12/06 17:43:42;;;;;;;27.00;13.68;;;;;;;4.07;77.83;99140.06;4923313;29;20105;-96
2023/12/06 17:46:43;;;;;;;24.50;13.40;;;;;;;4.30;77.73;99165.91;4979272;28;20039;-96
2023/12/06 17:57:50;;;;;;;19.92;10.77;;;;;;;4.15;77.22;99154.88;4999876;28;20042;-95
2023/12/06 18:00:19;;;;;;;23.42;12.68;;;;;;;4.22;77.33;99171.59;5004602;28;20053;-95
2023/12/06 18:02:45;;;;;;;26.20;13.27;;;;;;;4.13;77.68;99163.13;4973485;28;20026;-96
2023/12/06 18:05:13;;;;;;;22.50;13.57;;;;;;;4.19;77.19;99153.38;4973079;28;20029;-96
2023/12/06 18:07:40;;;;;;;26.23;14.77;;;;;;;4.22;77.94;99152.94;4974239;28;20026;-96
2023/12/06 18:10:11;;;;;;;22.77;13.45;;;;;;;4.31;77.48;99178.16;4977358;28;20022;-96
2023/12/06 18:12:37;;;;;;;25.60;14.52;;;;;;;4.11;77.09;99143.06;4974586;28;20017;-96
2023/12/06 18:15:03;;;;;;;26.92;14.18;;;;;;;4.21;77.72;99173.44;4973292;28;20034;-96
2023/12/06 18:17:28;;;;;;;29.20;14.38;;;;;;;4.28;77.43;99152.00;4973975;28;20029;-94
2023/12/06 18:19:54;;;;;;;27.92;14.63;;;;;;;4.29;77.31;99172.25;4974730;28;20030;-95
2023/12/06 18:22:25;;;;;;;28.40;14.32;;;;;;;4.17;77.58;99147.47;4977087;28;20360;-94
2023/12/06 18:24:53;;;;;;;24.08;12.80;;;;;;;4.19;77.49;99142.72;4976338;28;20353;-95
2023/12/06 18:27:19;;;;;;;27.67;13.63;;;;;;;4.21;77.27;99146.78;4976120;28;20034;-96
2023/12/06 18:29:45;;;;;;;23.08;12.65;;;;;;;4.22;77.41;99156.41;4976786;28;20082;-95
2023/12/06 18:32:11;;;;;;;31.45;14.80;;;;;;;4.25;76.85;99160.44;4974756;28;20169;-94
2023/12/06 18:34:37;;;;;;;32.05;15.32;;;;;;;4.19;78.29;99166.69;4973017;28;20022;-93
2023/12/06 18:37:03;;;;;;;22.38;13.15;;;;;;;4.19;77.91;99150.72;4988341;28;20026;-94
2023/12/06 18:39:30;;;;;;;23.13;12.93;;;;;;;4.23;78.20;99173.19;4982130;28;20436;-94
2023/12/06 18:41:56;;;;;;;24.17;13.35;;;;;;;4.24;77.72;99166.84;4974997;28;20010;-95
2023/12/06 18:44:24;;;;;;;31.70;17.48;;;;;;;4.20;77.91;99163.00;4972570;28;20100;-95
2023/12/06 18:46:52;;;;;;;24.20;14.02;;;;;;;4.17;77.86;99166.97;4973041;28;20052;-95
2023/12/06 18:49:19;;;;;;;25.70;14.00;;;;;;;4.22;77.46;99155.59;4975757;28;20029;-94
2023/12/06 18:51:45;;;;;;;27.13;14.68;;;;;;;4.34;78.17;99160.94;4991251;28;20045;-95
2023/12/06 18:54:10;;;;;;;25.90;15.13;;;;;;;4.34;77.63;99166.25;4973334;28;20029;-96
2023/12/06 18:56:40;;;;;;;31.20;15.70;;;;;;;4.30;77.74;99165.09;4973966;28;20024;-94
2023/12/06 18:59:07;;;;;;;25.70;15.25;;;;;;;4.28;78.24;99154.66;4989607;28;20046;-95
2023/12/06 19:01:35;;;;;;;26.48;15.48;;;;;;;4.28;77.58;99144.00;4971320;28;20029;-96
2023/12/06 19:04:01;;;;;;;29.33;16.55;;;;;;;4.41;77.53;99167.75;4971883;28;20121;-96
2023/12/06 19:06:27;;;;;;;27.65;16.30;;;;;;;4.26;78.17;99151.41;4972791;28;20021;-95
2023/12/06 19:08:54;;;;;;;27.48;15.45;;;;;;;4.27;78.44;99161.03;4988637;28;20041;-95
2023/12/06 19:11:22;;;;;;;27.80;16.42;;;;;;;4.41;78.38;99173.06;4986589;28;20045;-96
2023/12/06 19:13:51;;;;;;;26.33;16.05;;;;;;;4.33;77.58;99152.09;4970770;28;20030;-95
2023/12/06 19:16:17;;;;;;;27.75;15.00;;;;;;;4.31;77.89;99148.06;4971734;28;20026;-96
2023/12/06 19:18:42;;;;;;;29.13;16.00;;;;;;;4.26;78.67;99151.41;4970598;28;20541;-96
2023/12/06 19:21:09;;;;;;;27.88;15.85;;;;;;;4.15;77.97;99150.38;4971137;28;20026;-95
2023/12/06 19:23:35;;;;;;;28.33;16.80;;;;;;;4.29;78.07;99150.13;4972776;28;20097;-95
2023/12/06 19:26:03;;;;;;;25.02;15.20;;;;;;;4.40;77.29;99152.81;4972024;28;20065;-95
2023/12/06 19:28:29;;;;;;;23.25;14.85;;;;;;;4.35;77.92;99141.22;4972287;28;20026;-95
2023/12/06 19:30:56;;;;;;;28.98;15.35;;;;;;;4.32;77.69;99152.34;4971514;28;20060;-95
2023/12/06 19:33:22;;;;;;;26.67;14.75;;;;;;;4.30;77.75;99149.91;4972997;28;20117;-95
2023/12/06 19:35:48;;;;;;;24.25;14.25;;;;;;;4.41;77.92;99161.59;4970457;28;20063;-94
2023/12/06 19:38:17;;;;;;;33.40;17.98;;;;;;;4.32;78.23;99150.50;4972635;28;20106;-95
2023/12/06 19:40:43;;;;;;;60.05;24.55;;;;;;;4.53;78.63;99178.41;5003785;28;20121;-95
2023/12/06 19:43:10;;;;;;;35.35;18.70;;;;;;;4.62;77.58;99178.84;4970653;28;20112;-95
2023/12/06 19:45:38;;;;;;;32.38;17.70;;;;;;;4.39;77.54;99158.38;4988740;28;20061;-94
2023/12/06 19:48:05;;;;;;;34.45;18.70;;;;;;;4.51;77.71;99183.16;4970972;28;20033;-96
2023/12/06 19:50:30;;;;;;;37.20;19.83;;;;;;;4.30;78.19;99160.56;4969189;28;20120;-94
2023/12/06 19:52:56;;;;;;;30.77;17.35;;;;;;;4.45;78.79;99179.56;4970246;28;20131;-96
2023/12/06 19:55:22;;;;;;;28.55;16.27;;;;;;;4.19;78.21;99140.88;4969600;28;20124;-95
2023/12/06 19:57:53;;;;;;;29.33;16.08;;;;;;;4.29;78.69;99158.94;4970388;28;20506;-96
2023/12/06 20:00:19;;;;;;;29.38;16.98;;;;;;;4.42;78.50;99179.22;4983978;28;20046;-94
2023/12/06 20:02:45;;;;;;;28.15;15.50;;;;;;;4.32;78.53;99171.81;4983900;28;20022;-96
2023/12/06 20:05:11;;;;;;;26.95;14.98;;;;;;;4.30;78.10;99168.56;4965656;28;20123;-94
2023/12/06 20:07:42;;;;;;;24.70;15.13;;;;;;;4.28;77.73;99156.53;4966808;28;20022;-95
2023/12/06 20:10:17;;;;;;;24.85;14.32;;;;;;;4.35;78.11;99163.34;4968659;28;20473;-96
2023/12/06 20:12:43;;;;;;;25.77;15.20;;;;;;;4.38;78.42;99176.22;4967477;28;20030;-95
2023/12/06 20:15:09;;;;;;;21.85;14.48;;;;;;;4.31;77.62;99150.72;4967857;28;20022;-95
2023/12/06 20:17:35;;;;;;;26.63;14.35;;;;;;;4.29;78.24;99152.81;4982842;28;20022;-95
2023/12/06 20:23:27;;;;;;;29.48;17.65;;;;;;;4.36;78.05;99172.16;5001652;28;20061;-95
2023/12/06 20:25:53;;;;;;;27.20;17.38;;;;;;;4.23;78.51;99160.69;4967483;28;20042;-93
2023/12/06 20:28:18;;;;;;;28.75;16.65;;;;;;;4.16;78.25;99167.97;4967137;28;20530;-95
2023/12/06 20:30:44;;;;;;;28.10;16.20;;;;;;;4.22;78.43;99180.38;4981154;28;20098;-96
2023/12/06 20:33:10;;;;;;;28.42;17.75;;;;;;;4.19;79.52;99175.53;4981813;28;20113;-94
2023/12/06 20:35:35;;;;;;;29.73;16.00;;;;;;;4.27;79.20;99185.00;4964964;28;20046;-95
2023/12/06 20:38:01;;;;;;;29.42;16.50;;;;;;;4.33;78.26;99180.63;4965497;28;20053;-96
2023/12/06 20:40:29;;;;;;;29.13;17.10;;;;;;;4.37;78.58;99195.91;4981723;28;20547;-94
2023/12/06 20:42:55;;;;;;;26.65;16.27;;;;;;;4.22;78.74;99183.03;4966296;28;20058;-94
2023/12/06 20:45:20;;;;;;;25.17;16.42;;;;;;;4.37;78.35;99195.09;4981838;28;20037;-95
2023/12/06 20:47:46;;;;;;;31.02;17.85;;;;;;;4.44;78.85;99199.28;4964665;28;20412;-94
2023/12/06 20:50:12;;;;;;;27.65;15.45;;;;;;;4.35;78.72;99197.19;4981076;28;20425;-95
2023/12/06 20:52:37;;;;;;;21.70;14.27;;;;;;;4.34;79.29;99184.91;4966305;28;20031;-94
2023/12/06 20:55:03;;;;;;;24.33;15.27;;;;;;;4.31;78.75;99175.50;4980706;28;20176;-95
2023/12/06 20:57:29;;;;;;;26.58;15.15;;;;;;;4.36;79.39;99170.31;4963602;28;20477;-94
2023/12/06 20:59:55;;;;;;;24.55;14.52;;;;;;;4.39;78.46;99185.81;4964594;28;20133;-94
2023/12/06 21:02:21;;;;;;;25.23;15.70;;;;;;;4.32;78.47;99163.81;4969043;28;20073;-95
2023/12/06 21:04:46;;;;;;;24.83;15.52;;;;;;;4.28;78.12;99162.66;4985221;28;20117;-95
2023/12/06 21:07:12;;;;;;;24.88;15.13;;;;;;;4.39;77.40;99166.34;4968669;28;20113;-95
2023/12/06 21:09:39;;;;;;;24.35;15.00;;;;;;;4.31;78.68;99166.72;4984011;28;20474;-95
2023/12/06 21:12:05;;;;;;;25.38;14.68;;;;;;;4.36;78.24;99177.50;4984761;28;20413;-96
2023/12/06 21:14:31;;;;;;;24.85;14.52;;;;;;;4.47;77.99;99184.66;4968343;28;20482;-95
2023/12/06 21:16:57;;;;;;;20.67;13.10;;;;;;;4.37;78.63;99181.78;4984386;28;20035;-95
2023/12/06 21:19:23;;;;;;;24.60;13.63;;;;;;;4.50;78.96;99220.72;4968321;28;20018;-96
2023/12/06 21:21:55;;;;;;;20.77;12.70;;;;;;;4.28;78.10;99183.97;4985287;28;20022;-96
2023/12/06 21:24:23;;;;;;;25.13;12.80;;;;;;;4.49;79.13;99213.78;4969143;28;20026;-96
2023/12/06 21:26:49;;;;;;;20.35;12.27;;;;;;;4.34;78.89;99184.91;4969056;28;20034;-96
2023/12/06 21:29:15;;;;;;;17.17;11.75;;;;;;;4.42;78.52;99198.69;4967919;28;20087;-95